Time;durP1;ratioP1;P1;durP2;ratioP2;P2;SDS_P1;SDS_P2;PMS_P1;PMS_P2;Temp;Humidity;BMP_temperature;BMP_pressure;BME280_temperature;BME280_humidity;BME280_pressure;Samples;Min_cycle;Max_cycle;Signal;HPM_P1;HPM_P2
2022/05/21 00:01:11;;;;;;;7.95;3.80;;;11.00;99.90;;;;;;5032988;28;20129;-78
2022/05/21 00:03:36;;;;;;;8.63;4.07;;;11.00;99.90;;;;;;5033201;28;20111;-78
2022/05/21 00:06:02;;;;;;;6.47;3.67;;;11.00;99.90;;;;;;5033034;28;20124;-78
2022/05/21 00:08:28;;;;;;;5.22;3.25;;;11.00;99.90;;;;;;5032758;28;20137;-78
2022/05/21 00:10:53;;;;;;;7.13;3.42;;;10.90;99.90;;;;;;5031841;28;20049;-77
2022/05/21 00:13:19;;;;;;;8.70;3.63;;;11.00;99.90;;;;;;5031825;28;20049;-81
2022/05/21 00:15:45;;;;;;;4.90;2.95;;;11.00;99.90;;;;;;5031927;28;20044;-79
2022/05/21 00:18:11;;;;;;;5.35;3.03;;;11.20;99.90;;;;;;5032926;28;20056;-80
2022/05/21 00:20:49;;;;;;;5.07;2.90;;;11.20;99.90;;;;;;5032824;28;20124;-80
2022/05/21 00:23:30;;;;;;;5.85;2.53;;;11.00;99.90;;;;;;5031895;28;20041;-81
2022/05/21 00:26:05;;;;;;;5.35;3.05;;;11.30;99.90;;;;;;5032924;28;20103;-78
2022/05/21 00:28:31;;;;;;;9.23;2.90;;;10.90;99.90;;;;;;5032962;28;20049;-81
2022/05/21 00:30:57;;;;;;;6.10;2.53;;;11.00;99.90;;;;;;5032777;28;20081;-80
2022/05/21 00:33:24;;;;;;;7.68;2.90;;;10.90;99.90;;;;;;5032528;28;20132;-79
2022/05/21 00:35:51;;;;;;;6.50;2.83;;;10.90;99.90;;;;;;5032693;28;20049;-79
2022/05/21 00:38:17;;;;;;;7.40;3.30;;;10.90;99.90;;;;;;5035575;28;20100;-80
2022/05/21 00:40:45;;;;;;;6.25;3.45;;;11.30;99.90;;;;;;5036403;28;20111;-79
2022/05/21 00:43:33;;;;;;;7.32;3.45;;;11.00;99.90;;;;;;5036473;28;20056;-81
2022/05/21 00:45:59;;;;;;;6.97;3.53;;;10.90;99.90;;;;;;5036269;28;20401;-80
2022/05/21 00:48:25;;;;;;;7.97;4.40;;;11.00;99.90;;;;;;5036331;28;20053;-79
2022/05/21 00:50:52;;;;;;;6.25;4.22;;;11.40;99.90;;;;;;5036088;28;20497;-81
2022/05/21 00:53:18;;;;;;;8.30;4.03;;;10.90;99.90;;;;;;5035776;28;20124;-80
2022/05/21 00:55:45;;;;;;;10.90;5.25;;;10.90;99.90;;;;;;5036098;28;20046;-79
2022/05/21 01:01:00;;;;;;;10.02;5.50;;;11.00;99.90;;;;;;5036129;28;20096;-78
2022/05/21 01:03:29;;;;;;;11.02;5.57;;;11.40;99.90;;;;;;5035794;28;20500;-79
2022/05/21 01:05:57;;;;;;;13.30;6.35;;;11.00;99.90;;;;;;5018392;28;20084;-80
2022/05/21 01:08:22;;;;;;;11.43;6.22;;;11.00;99.90;;;;;;5035817;28;20124;-78
2022/05/21 01:10:53;;;;;;;13.40;7.25;;;11.00;99.90;;;;;;5035668;28;20480;-76
2022/05/21 01:13:23;;;;;;;11.90;6.95;;;11.50;99.90;;;;;;5035300;28;20479;-79
2022/05/21 01:15:54;;;;;;;13.30;6.78;;;11.20;99.90;;;;;;5035729;28;20048;-77
2022/05/21 01:18:21;;;;;;;14.20;7.35;;;11.10;99.90;;;;;;5035793;28;20515;-78
2022/05/21 01:20:52;;;;;;;14.00;7.68;;;11.10;99.90;;;;;;5035602;28;20081;-78
2022/05/21 01:23:19;;;;;;;12.68;7.50;;;11.10;99.90;;;;;;5035328;28;20045;-79
2022/05/21 01:25:47;;;;;;;12.93;7.95;;;11.10;99.90;;;;;;5035839;28;20051;-80
2022/05/21 01:28:15;;;;;;;16.00;9.52;;;11.30;99.90;;;;;;5035823;28;20053;-81
2022/05/21 01:30:47;;;;;;;15.70;9.35;;;11.30;99.90;;;;;;5034473;28;20049;-81
2022/05/21 01:33:15;;;;;;;19.23;10.68;;;11.00;99.90;;;;;;5017885;28;20045;-79
2022/05/21 01:35:43;;;;;;;17.25;11.20;;;11.20;99.90;;;;;;5035215;28;20087;-79
2022/05/21 01:38:10;;;;;;;14.52;9.88;;;11.30;99.90;;;;;;5035117;28;20091;-80
2022/05/21 01:40:36;;;;;;;17.00;10.18;;;11.30;99.90;;;;;;5034451;28;20054;-79
2022/05/21 01:45:51;;;;;;;15.70;10.27;;;11.20;99.90;;;;;;5034331;28;20068;-80
2022/05/21 01:48:19;;;;;;;15.23;10.82;;;11.20;99.90;;;;;;5032863;28;20111;-79
2022/05/21 01:50:46;;;;;;;14.57;10.23;;;11.20;99.90;;;;;;5034771;28;20494;-79
2022/05/21 01:53:12;;;;;;;18.77;11.20;;;11.30;99.90;;;;;;5033577;28;20548;-79
2022/05/21 01:55:39;;;;;;;20.08;11.65;;;11.40;99.90;;;;;;5035034;28;20080;-85
2022/05/21 01:58:05;;;;;;;20.10;12.02;;;11.30;99.90;;;;;;5034849;28;20087;-78
2022/05/21 02:00:30;;;;;;;21.30;12.45;;;11.40;99.90;;;;;;5034852;28;20050;-81
2022/05/21 02:02:56;;;;;;;19.55;12.80;;;11.50;99.90;;;;;;5034666;28;20049;-79
2022/05/21 02:05:22;;;;;;;23.13;13.02;;;11.40;99.90;;;;;;5035156;28;20041;-80
2022/05/21 02:07:48;;;;;;;21.13;13.43;;;11.50;99.90;;;;;;5035315;28;20080;-78
2022/05/21 02:10:14;;;;;;;21.77;13.13;;;11.40;99.90;;;;;;5034685;28;20084;-80
2022/05/21 02:12:40;;;;;;;24.10;14.98;;;11.50;99.90;;;;;;5033669;28;20444;-79
2022/05/21 02:15:06;;;;;;;22.98;14.15;;;11.50;99.90;;;;;;5033575;28;20082;-79
2022/05/21 02:17:32;;;;;;;21.85;15.07;;;11.60;99.90;;;;;;5033120;28;20053;-81
2022/05/21 02:19:58;;;;;;;29.15;16.13;;;11.60;99.90;;;;;;5034612;28;20045;-79
2022/05/21 02:22:24;;;;;;;26.58;15.93;;;11.70;99.90;;;;;;5033387;28;20064;-78
2022/05/21 02:24:50;;;;;;;23.85;16.02;;;11.90;99.90;;;;;;5034041;28;20045;-77
2022/05/21 02:27:16;;;;;;;28.63;16.95;;;11.70;99.90;;;;;;5033186;28;20084;-80
2022/05/21 02:29:43;;;;;;;27.95;17.77;;;11.90;99.90;;;;;;5034470;28;20088;-83
2022/05/21 02:32:11;;;;;;;30.75;18.10;;;11.90;99.90;;;;;;5033204;28;20046;-83
2022/05/21 02:34:36;;;;;;;28.58;18.20;;;11.90;99.90;;;;;;5034266;28;20471;-80
2022/05/21 02:39:47;;;;;;;32.92;20.10;;;11.80;99.90;;;;;;5034237;28;20084;-81
2022/05/21 02:44:57;;;;;;;30.17;19.55;;;11.80;99.90;;;;;;5032784;28;20140;-79
2022/05/21 02:47:25;;;;;;;33.65;19.55;;;11.90;99.90;;;;;;5033879;28;20132;-80
2022/05/21 02:49:50;;;;;;;33.50;19.80;;;12.00;99.90;;;;;;5034137;28;20041;-81
2022/05/21 02:52:17;;;;;;;29.38;19.70;;;12.00;99.90;;;;;;5016449;28;20065;-79
2022/05/21 02:54:43;;;;;;;32.45;20.67;;;11.90;99.90;;;;;;5032316;28;20089;-80
2022/05/21 02:57:10;;;;;;;30.45;19.55;;;12.10;99.90;;;;;;5032744;28;20091;-80
2022/05/21 02:59:36;;;;;;;29.35;18.75;;;11.90;99.90;;;;;;5034448;28;20405;-81
2022/05/21 03:02:03;;;;;;;32.33;20.25;;;12.00;99.90;;;;;;5033649;28;20045;-81
2022/05/21 03:04:29;;;;;;;28.38;19.60;;;12.00;99.90;;;;;;5033658;28;20569;-81
2022/05/21 03:06:55;;;;;;;30.05;18.85;;;12.10;99.90;;;;;;5032719;28;20560;-82
2022/05/21 03:12:05;;;;;;;30.70;18.90;;;12.20;99.90;;;;;;5032488;28;20049;-79
2022/05/21 03:14:31;;;;;;;25.88;17.80;;;12.10;99.90;;;;;;5033566;28;20050;-80
2022/05/21 03:16:59;;;;;;;35.20;19.05;;;12.10;99.90;;;;;;5033593;28;20068;-80
2022/05/21 03:19:30;;;;;;;27.65;17.00;;;12.30;99.90;;;;;;5033381;28;20490;-81
2022/05/21 03:21:57;;;;;;;27.23;17.10;;;12.10;99.90;;;;;;5033431;28;20045;-80
2022/05/21 03:24:23;;;;;;;27.50;16.90;;;12.30;99.90;;;;;;5032815;28;20053;-80
2022/05/21 03:26:49;;;;;;;27.77;16.35;;;12.10;99.90;;;;;;5016135;28;20053;-79
2022/05/21 03:29:16;;;;;;;28.58;17.05;;;12.20;99.90;;;;;;5033414;28;20053;-80
2022/05/21 03:31:42;;;;;;;31.58;17.55;;;12.20;99.90;;;;;;5032664;28;20049;-80
2022/05/21 03:34:08;;;;;;;25.52;16.40;;;12.40;99.90;;;;;;5033730;28;20064;-83
2022/05/21 03:36:34;;;;;;;25.60;16.50;;;12.20;99.90;;;;;;5033312;28;20050;-82
2022/05/21 03:39:00;;;;;;;26.70;15.93;;;12.20;99.90;;;;;;5032911;28;20056;-79
2022/05/21 03:41:26;;;;;;;25.10;15.85;;;12.10;99.90;;;;;;5033442;28;20046;-80
2022/05/21 03:43:52;;;;;;;19.55;14.20;;;12.40;99.90;;;;;;5033750;28;20045;-83
2022/05/21 03:46:19;;;;;;;24.55;14.20;;;12.20;99.90;;;;;;5033229;28;20045;-82
2022/05/21 03:48:45;;;;;;;21.20;14.90;;;12.30;99.90;;;;;;5033068;28;20057;-80
2022/05/21 03:51:11;;;;;;;23.15;14.85;;;12.30;99.90;;;;;;5032101;28;20060;-79
2022/05/21 03:53:37;;;;;;;22.35;14.80;;;12.30;99.90;;;;;;5031589;28;20493;-82
2022/05/21 03:56:03;;;;;;;24.00;15.25;;;12.30;99.90;;;;;;5033205;28;20048;-81
2022/05/21 03:58:30;;;;;;;24.15;15.57;;;12.30;99.90;;;;;;5032949;28;20050;-80
2022/05/21 04:00:55;;;;;;;21.92;14.50;;;12.30;99.90;;;;;;5033188;28;20088;-80
2022/05/21 04:03:21;;;;;;;23.33;14.20;;;12.30;99.90;;;;;;5032961;28;20558;-80
2022/05/21 04:05:47;;;;;;;26.73;14.75;;;12.40;99.90;;;;;;5031938;28;20054;-83
2022/05/21 04:08:15;;;;;;;22.23;13.90;;;12.40;99.90;;;;;;5032742;28;20091;-80
2022/05/21 04:10:41;;;;;;;20.10;12.75;;;12.40;99.90;;;;;;5031915;28;20045;-82
2022/05/21 04:13:07;;;;;;;17.63;13.43;;;12.40;99.90;;;;;;5036723;28;20499;-82
2022/05/21 04:15:34;;;;;;;21.15;12.55;;;12.70;99.90;;;;;;5036818;28;20124;-86
2022/05/21 04:18:00;;;;;;;18.25;12.38;;;12.40;99.90;;;;;;5036776;28;20049;-86
2022/05/21 04:20:26;;;;;;;20.80;11.10;;;12.50;99.90;;;;;;5036686;28;20045;-86
2022/05/21 04:22:52;;;;;;;17.42;10.45;;;12.50;99.90;;;;;;5036491;28;20045;-81
2022/05/21 04:25:18;;;;;;;16.90;9.50;;;12.50;99.90;;;;;;5036458;28;20052;-86
2022/05/21 04:27:44;;;;;;;14.25;7.78;;;12.60;99.90;;;;;;5035569;28;20049;-83
2022/05/21 04:30:17;;;;;;;16.02;8.38;;;12.60;99.90;;;;;;5035588;28;20130;-81
2022/05/21 04:32:46;;;;;;;13.07;7.43;;;12.50;99.90;;;;;;5036834;28;20375;-83
2022/05/21 04:35:13;;;;;;;17.92;7.32;;;12.50;99.90;;;;;;5036237;28;20128;-83
2022/05/21 04:37:39;;;;;;;19.80;7.03;;;12.60;99.90;;;;;;5035396;28;20045;-82
2022/05/21 04:40:09;;;;;;;14.88;6.65;;;12.80;99.90;;;;;;5036595;28;20045;-84
2022/05/21 04:42:35;;;;;;;17.75;6.57;;;12.70;99.90;;;;;;5036522;28;20045;-84
2022/05/21 04:45:01;;;;;;;13.57;6.60;;;12.70;99.90;;;;;;5036501;28;20119;-83
2022/05/21 04:47:27;;;;;;;13.93;5.55;;;12.80;99.90;;;;;;5036252;28;20107;-82
2022/05/21 04:49:52;;;;;;;12.90;5.10;;;12.80;99.90;;;;;;5034998;28;20045;-82
2022/05/21 04:52:18;;;;;;;11.13;4.60;;;12.80;99.90;;;;;;5036281;28;20057;-84
2022/05/21 04:54:44;;;;;;;11.98;4.10;;;12.80;99.90;;;;;;5035934;28;20477;-82
2022/05/21 04:57:09;;;;;;;10.65;3.22;;;12.90;99.90;;;;;;5036104;28;20057;-82
2022/05/21 04:59:35;;;;;;;7.70;2.67;;;12.80;99.90;;;;;;5036109;28;20049;-82
2022/05/21 05:02:02;;;;;;;8.85;3.15;;;13.00;99.90;;;;;;5035893;28;20130;-86
2022/05/21 05:04:27;;;;;;;9.68;2.97;;;12.90;99.90;;;;;;5034781;28;20099;-77
2022/05/21 05:06:53;;;;;;;12.32;3.47;;;12.90;99.90;;;;;;5034749;28;20041;-82
2022/05/21 05:09:22;;;;;;;9.75;2.70;;;12.90;99.90;;;;;;5034800;28;20046;-81
2022/05/21 05:11:49;;;;;;;10.55;2.50;;;13.00;99.90;;;;;;5018540;28;20054;-82
2022/05/21 05:14:15;;;;;;;6.18;2.10;;;13.00;99.90;;;;;;5035743;28;20049;-82
2022/05/21 05:16:41;;;;;;;8.82;2.53;;;13.10;99.90;;;;;;5034428;28;20409;-83
2022/05/21 05:19:07;;;;;;;9.07;2.28;;;13.30;99.90;;;;;;5035472;28;20184;-84
2022/05/21 05:21:33;;;;;;;11.23;2.22;;;13.00;99.90;;;;;;5034549;28;20061;-87
2022/05/21 05:23:58;;;;;;;10.52;2.10;;;13.20;99.90;;;;;;5034167;28;20128;-83
2022/05/21 05:26:25;;;;;;;7.68;1.98;;;13.10;99.90;;;;;;5035806;28;20124;-80
2022/05/21 05:28:51;;;;;;;7.18;1.90;;;13.20;99.90;;;;;;5034696;28;20053;-81
2022/05/21 05:31:17;;;;;;;5.65;2.00;;;13.10;99.90;;;;;;5035461;28;20124;-76
2022/05/21 05:33:43;;;;;;;4.22;2.08;;;13.10;99.90;;;;;;5001335;28;20048;-78
2022/05/21 05:36:08;;;;;;;10.82;2.33;;;13.10;99.90;;;;;;5034571;28;20041;-79
2022/05/21 05:38:34;;;;;;;7.28;1.88;;;13.20;99.90;;;;;;5035293;28;20485;-82
2022/05/21 05:41:01;;;;;;;7.55;1.60;;;13.20;99.90;;;;;;5035303;28;20091;-86
2022/05/21 05:43:27;;;;;;;7.55;1.77;;;13.20;99.90;;;;;;5034017;28;20060;-83
2022/05/21 05:46:02;;;;;;;7.35;2.50;;;13.30;99.90;;;;;;5001412;28;20045;-78
2022/05/21 05:48:29;;;;;;;6.25;1.60;;;13.20;99.90;;;;;;5035305;28;20140;-78
2022/05/21 05:50:56;;;;;;;6.72;1.80;;;13.40;99.90;;;;;;5034182;28;20084;-80
2022/05/21 05:53:22;;;;;;;5.18;1.70;;;13.40;99.90;;;;;;5033539;28;20056;-81
2022/05/21 05:55:48;;;;;;;8.27;1.88;;;13.50;99.90;;;;;;5034057;28;20048;-80
2022/05/21 06:00:58;;;;;;;6.80;2.42;;;13.30;99.90;;;;;;5035068;28;20115;-84
2022/05/21 06:03:24;;;;;;;7.20;1.92;;;13.40;99.90;;;;;;5033713;28;20045;-83
2022/05/21 06:05:50;;;;;;;5.65;2.00;;;13.30;99.90;;;;;;5034818;28;20080;-86
2022/05/21 06:08:16;;;;;;;3.42;1.70;;;13.40;99.90;;;;;;5034840;28;20050;-84
2022/05/21 06:10:44;;;;;;;11.50;1.95;;;13.30;99.90;;;;;;5033751;28;20056;-82
2022/05/21 06:13:10;;;;;;;8.25;2.03;;;13.30;99.90;;;;;;5034500;28;20057;-80
2022/05/21 06:15:37;;;;;;;6.10;1.73;;;13.50;99.90;;;;;;5034638;28;20045;-81
2022/05/21 06:18:16;;;;;;;9.23;1.63;;;13.50;99.90;;;;;;5034083;28;20405;-81
2022/05/21 06:20:43;;;;;;;6.72;1.60;;;13.60;99.90;;;;;;5034885;28;20460;-85
2022/05/21 06:23:10;;;;;;;5.53;1.60;;;13.70;99.90;;;;;;5034398;28;20046;-82
2022/05/21 06:25:36;;;;;;;7.15;1.77;;;13.70;99.90;;;;;;5032904;28;20049;-85
2022/05/21 06:28:04;;;;;;;7.97;2.00;;;13.70;99.90;;;;;;5032980;28;20091;-81
2022/05/21 06:30:31;;;;;;;7.10;1.80;;;13.70;99.90;;;;;;5034356;28;20057;-82
2022/05/21 06:32:58;;;;;;;5.95;1.58;;;13.70;99.90;;;;;;5034355;28;20081;-86
2022/05/21 06:35:24;;;;;;;6.03;1.65;;;13.80;99.90;;;;;;5033518;28;20486;-83
2022/05/21 06:37:50;;;;;;;6.13;1.63;;;13.90;99.90;;;;;;5034219;28;20079;-82
2022/05/21 06:40:17;;;;;;;7.55;1.65;;;13.80;99.90;;;;;;5033025;28;20482;-86
2022/05/21 06:42:42;;;;;;;6.85;1.48;;;13.80;99.90;;;;;;5032676;28;20566;-86
2022/05/21 06:45:09;;;;;;;7.32;1.60;;;13.90;99.90;;;;;;5034137;28;20045;-84
2022/05/21 06:47:36;;;;;;;7.47;1.73;;;13.90;99.90;;;;;;5034505;28;20072;-83
2022/05/21 06:50:03;;;;;;;7.00;1.67;;;14.00;99.90;;;;;;5033926;28;20052;-83
2022/05/21 06:52:30;;;;;;;4.90;1.65;;;14.00;99.90;;;;;;5033899;28;20063;-81
2022/05/21 06:54:56;;;;;;;6.53;1.42;;;14.00;99.90;;;;;;5033201;28;20050;-80
2022/05/21 06:57:26;;;;;;;5.60;1.83;;;14.00;99.90;;;;;;5032500;28;20097;-83
2022/05/21 06:59:52;;;;;;;7.53;1.58;;;14.30;99.90;;;;;;5033108;28;20135;-82
2022/05/21 07:02:17;;;;;;;8.05;1.30;;;14.10;99.90;;;;;;5033276;28;20049;-80
2022/05/21 07:07:34;;;;;;;5.47;1.67;;;14.10;99.90;;;;;;5032940;28;20053;-84
2022/05/21 07:10:07;;;;;;;4.95;1.42;;;14.20;99.90;;;;;;5032808;28;20452;-81
2022/05/21 07:12:34;;;;;;;6.63;1.17;;;14.20;99.90;;;;;;5033696;28;20482;-87
2022/05/21 07:15:02;;;;;;;7.75;1.30;;;14.20;99.90;;;;;;5033556;28;20099;-85
2022/05/21 07:17:27;;;;;;;6.07;1.33;;;14.30;99.90;;;;;;5033624;28;20092;-82
2022/05/21 07:19:53;;;;;;;6.05;1.30;;;14.20;99.90;;;;;;5033345;28;20080;-87
2022/05/21 07:22:19;;;;;;;8.32;1.27;;;14.20;99.90;;;;;;5033239;28;20409;-83
2022/05/21 07:24:45;;;;;;;5.63;1.35;;;14.10;99.90;;;;;;5015793;28;20045;-81
2022/05/21 07:27:15;;;;;;;5.55;1.35;;;14.10;99.90;;;;;;5032536;28;20049;-84
2022/05/21 07:29:42;;;;;;;5.57;1.27;;;14.20;99.90;;;;;;5032345;28;20057;-82
2022/05/21 07:32:22;;;;;;;5.88;1.60;;;14.30;99.90;;;;;;5033466;28;20041;-79
2022/05/21 07:34:55;;;;;;;4.53;1.20;;;14.40;99.90;;;;;;5033150;28;20049;-76
2022/05/21 07:37:20;;;;;;;5.88;1.20;;;14.50;99.90;;;;;;5032619;28;20084;-81
2022/05/21 07:39:46;;;;;;;5.82;1.40;;;14.30;99.90;;;;;;5033561;28;20088;-78
2022/05/21 07:42:12;;;;;;;8.43;1.20;;;14.40;99.90;;;;;;5032672;28;20096;-77
2022/05/21 07:44:37;;;;;;;9.77;1.73;;;14.60;99.90;;;;;;5032391;28;20077;-83
2022/05/21 07:47:03;;;;;;;5.88;1.55;;;14.60;99.90;;;;;;5035330;28;20506;-82
2022/05/21 07:49:29;;;;;;;5.20;1.58;;;14.60;99.90;;;;;;5037707;28;20107;-81
2022/05/21 07:51:57;;;;;;;6.10;1.50;;;14.70;99.90;;;;;;5036342;28;20057;-83
2022/05/21 07:54:22;;;;;;;5.32;1.58;;;14.70;99.90;;;;;;5035615;28;20056;-83
2022/05/21 07:56:48;;;;;;;5.97;1.48;;;14.70;99.90;;;;;;5019662;28;20041;-78
2022/05/21 07:59:13;;;;;;;6.65;1.80;;;14.70;99.90;;;;;;5037217;28;20159;-83
2022/05/21 08:01:39;;;;;;;8.02;1.60;;;14.70;99.90;;;;;;5037269;28;20099;-80
2022/05/21 08:04:05;;;;;;;4.63;1.10;;;14.80;99.90;;;;;;5037356;28;20067;-83
2022/05/21 08:06:31;;;;;;;6.07;1.55;;;14.80;99.90;;;;;;5035812;28;20073;-75
2022/05/21 08:08:58;;;;;;;9.10;1.30;;;15.00;99.90;;;;;;5036239;28;20054;-80
2022/05/21 08:11:24;;;;;;;8.40;1.67;;;15.00;99.90;;;;;;5037008;28;20099;-78
2022/05/21 08:13:49;;;;;;;6.30;1.10;;;15.10;99.90;;;;;;5037123;28;20049;-78
2022/05/21 08:16:15;;;;;;;9.32;1.45;;;15.20;99.90;;;;;;5036790;28;20048;-80
2022/05/21 08:18:41;;;;;;;6.15;1.60;;;15.10;99.90;;;;;;5019410;28;20038;-78
2022/05/21 08:21:07;;;;;;;6.25;1.38;;;15.10;99.90;;;;;;5037122;28;20045;-79
2022/05/21 08:29:02;;;;;;;4.32;1.02;;;15.00;99.90;;;;;;5036140;28;20069;-76
2022/05/21 08:31:28;;;;;;;5.35;1.20;;;15.00;99.90;;;;;;5027425;28;20128;-79
2022/05/21 08:33:54;;;;;;;5.20;0.80;;;15.00;99.90;;;;;;5025774;28;20076;-78
2022/05/21 08:36:20;;;;;;;4.97;1.00;;;15.00;99.90;;;;;;5026259;28;20042;-81
2022/05/21 08:38:46;;;;;;;5.40;1.10;;;15.00;99.90;;;;;;5027239;28;20049;-81
2022/05/21 08:41:24;;;;;;;5.38;1.20;;;15.00;99.90;;;;;;5024144;28;20048;-86
2022/05/21 08:44:01;;;;;;;6.97;1.30;;;15.10;99.90;;;;;;5025190;28;20038;-83
2022/05/21 08:47:10;;;;;;;5.07;1.20;;;15.20;99.90;;;;;;5025391;28;20045;-85
2022/05/21 08:49:43;;;;;;;4.97;1.33;;;15.30;99.90;;;;;;5027176;28;20045;-78
2022/05/21 08:52:46;;;;;;;5.63;1.00;;;15.20;99.90;;;;;;5026905;28;20409;-78
2022/05/21 08:55:18;;;;;;;2.88;0.80;;;15.20;99.90;;;;;;5026897;28;20475;-76
2022/05/21 08:57:48;;;;;;;5.13;0.82;;;15.20;99.90;;;;;;5024927;28;20393;-73
2022/05/21 09:00:26;;;;;;;6.75;1.05;;;15.30;99.90;;;;;;5026707;28;20045;-77
2022/05/21 09:02:54;;;;;;;6.57;0.80;;;15.40;99.90;;;;;;5025862;28;20046;-80
2022/05/21 09:05:22;;;;;;;2.78;0.80;;;15.40;99.90;;;;;;5025680;28;20050;-78
2022/05/21 09:08:28;;;;;;;5.95;0.93;;;15.50;99.90;;;;;;5024949;28;20436;-79
2022/05/21 09:11:11;;;;;;;4.43;1.13;;;15.60;99.90;;;;;;5033224;28;20493;-80
2022/05/21 09:13:46;;;;;;;4.18;1.05;;;15.60;99.90;;;;;;5026520;28;20057;-76
2022/05/21 09:19:03;;;;;;;5.20;0.90;;;15.60;99.90;;;;;;5026285;28;20560;-75
2022/05/21 09:21:32;;;;;;;4.22;0.82;;;15.80;99.90;;;;;;5026628;28;20052;-82
2022/05/21 09:24:00;;;;;;;6.07;1.13;;;15.90;99.90;;;;;;5022341;28;20037;-80
2022/05/21 09:26:47;;;;;;;3.55;0.90;;;15.90;99.90;;;;;;5025886;28;20053;-78
2022/05/21 09:29:34;;;;;;;3.55;0.82;;;16.10;99.90;;;;;;5026642;28;20054;-77
2022/05/21 09:32:17;;;;;;;7.10;1.00;;;16.10;99.90;;;;;;5026359;28;20050;-79
2022/05/21 09:34:43;;;;;;;2.60;0.80;;;16.00;99.90;;;;;;5026285;28;20041;-77
2022/05/21 09:37:17;;;;;;;4.63;0.85;;;16.00;99.90;;;;;;5024641;28;20048;-79
2022/05/21 09:39:43;;;;;;;4.15;1.00;;;16.00;99.90;;;;;;5025139;28;20087;-76
2022/05/21 09:45:23;;;;;;;4.15;0.75;;;15.90;99.90;;;;;;5025946;28;20049;-77
2022/05/21 09:47:53;;;;;;;3.72;0.82;;;15.70;99.90;;;;;;5024979;28;20173;-79
2022/05/21 09:50:25;;;;;;;5.10;1.00;;;15.70;99.90;;;;;;5025108;28;20045;-83
2022/05/21 09:52:51;;;;;;;5.23;1.00;;;15.70;99.90;;;;;;5024253;28;20049;-80
2022/05/21 09:55:27;;;;;;;4.70;0.80;;;15.90;99.90;;;;;;5026114;28;20512;-76
2022/05/21 09:57:54;;;;;;;3.10;0.80;;;15.90;99.90;;;;;;5025868;28;20080;-77
2022/05/21 10:00:23;;;;;;;6.68;0.80;;;15.90;99.90;;;;;;5023547;28;20060;-79
2022/05/21 10:02:55;;;;;;;3.78;0.90;;;15.90;99.90;;;;;;5038754;28;20112;-79
2022/05/21 10:05:29;;;;;;;3.25;0.93;;;15.90;99.90;;;;;;5024594;28;20034;-79
2022/05/21 10:11:44;;;;;;;4.72;0.93;;;15.80;99.90;;;;;;5024291;28;20067;-83
2022/05/21 10:14:22;;;;;;;5.15;1.00;;;15.70;99.90;;;;;;5026123;28;20046;-74
2022/05/21 10:17:05;;;;;;;7.72;1.00;;;15.60;99.90;;;;;;5025883;28;20084;-77
2022/05/21 10:19:41;;;;;;;7.68;1.35;;;15.60;99.90;;;;;;5025005;28;20033;-78
2022/05/21 10:22:36;;;;;;;4.35;0.98;;;15.50;99.90;;;;;;5025163;28;20088;-81
2022/05/21 10:25:46;;;;;;;5.65;1.10;;;15.50;99.90;;;;;;5024923;28;20044;-85
2022/05/21 10:28:33;;;;;;;4.05;1.27;;;15.50;99.90;;;;;;5025603;28;20046;-82
2022/05/21 10:31:36;;;;;;;5.28;0.88;;;15.60;99.90;;;;;;5025148;28;20053;-78
2022/05/21 10:34:10;;;;;;;3.75;0.80;;;15.70;99.90;;;;;;5024615;28;20481;-79
2022/05/21 10:37:33;;;;;;;6.15;0.70;;;15.80;99.90;;;;;;5023751;28;20038;-82
2022/05/21 10:40:31;;;;;;;3.85;0.90;;;15.80;99.90;;;;;;5009545;28;20566;-81
2022/05/21 10:43:27;;;;;;;4.72;1.20;;;15.80;99.90;;;;;;4983125;28;20054;-77
2022/05/21 10:46:19;;;;;;;5.10;1.02;;;16.00;99.90;;;;;;5025428;28;20052;-82
2022/05/21 10:49:12;;;;;;;4.18;0.90;;;16.10;99.90;;;;;;5024695;28;20053;-83
2022/05/21 10:51:49;;;;;;;5.88;1.35;;;16.20;99.90;;;;;;5024806;28;20099;-80
2022/05/21 10:54:33;;;;;;;5.30;0.60;;;16.30;99.90;;;;;;5024339;28;20057;-84
2022/05/21 10:57:13;;;;;;;2.53;0.73;;;16.30;99.90;;;;;;5024212;28;20508;-78
2022/05/21 11:00:18;;;;;;;3.80;0.73;;;16.30;99.90;;;;;;5023620;28;20114;-81
2022/05/21 11:03:11;;;;;;;1.65;0.52;;;16.30;99.90;;;;;;5023354;28;20549;-79
2022/05/21 11:05:55;;;;;;;4.80;0.73;;;16.30;99.90;;;;;;5024740;28;20045;-81
2022/05/21 11:08:48;;;;;;;5.88;1.10;;;16.30;99.90;;;;;;5024627;28;20049;-77
2022/05/21 11:11:27;;;;;;;6.95;0.90;;;16.40;99.90;;;;;;5023440;28;20045;-77
2022/05/21 11:14:12;;;;;;;4.38;0.70;;;16.40;99.90;;;;;;5024275;28;20456;-79
2022/05/21 11:16:54;;;;;;;3.28;0.82;;;16.50;99.90;;;;;;5024205;28;20049;-81
2022/05/21 11:19:34;;;;;;;2.42;0.80;;;16.60;99.90;;;;;;5025058;28;20132;-86
2022/05/21 11:22:08;;;;;;;6.63;1.10;;;16.60;99.90;;;;;;5024116;28;20448;-82
2022/05/21 11:24:53;;;;;;;2.85;0.70;;;16.50;99.90;;;;;;5023838;28;20120;-77
2022/05/21 11:27:46;;;;;;;4.28;0.80;;;16.40;99.90;;;;;;5023406;28;20084;-81
2022/05/21 11:30:17;;;;;;;3.45;0.80;;;16.40;99.90;;;;;;5024203;28;20156;-82
2022/05/21 11:38:46;;;;;;;4.72;0.80;;;16.40;99.90;;;;;;5024250;28;20057;-78
2022/05/21 11:41:29;;;;;;;5.57;0.80;;;16.60;99.90;;;;;;5023421;28;20095;-80
2022/05/21 11:46:48;;;;;;;3.08;0.60;;;16.90;99.90;;;;;;5023952;28;19927;-81
2022/05/21 11:49:26;;;;;;;2.90;0.60;;;17.00;99.90;;;;;;5022741;28;20397;-82
2022/05/21 11:51:58;;;;;;;2.15;0.57;;;17.20;99.90;;;;;;5023536;28;20572;-78
2022/05/21 11:54:45;;;;;;;7.07;0.68;;;17.10;99.90;;;;;;5022929;28;20061;-77
2022/05/21 11:57:11;;;;;;;2.67;0.68;;;17.00;99.90;;;;;;5024039;28;20046;-78
2022/05/21 11:59:53;;;;;;;3.22;0.60;;;17.00;99.90;;;;;;5022957;28;20066;-79
2022/05/21 12:02:28;;;;;;;3.67;0.52;;;17.00;99.90;;;;;;5022923;28;20384;-74
2022/05/21 12:05:05;;;;;;;3.30;0.60;;;17.10;99.90;;;;;;5023547;28;20587;-77
2022/05/21 12:07:43;;;;;;;3.58;0.70;;;17.10;99.90;;;;;;5022678;28;20052;-78
2022/05/21 12:10:13;;;;;;;3.90;0.77;;;17.20;99.90;;;;;;5022547;28;20516;-73
2022/05/21 12:13:03;;;;;;;6.10;0.75;;;17.30;99.90;;;;;;5022604;28;20042;-78
2022/05/21 12:15:43;;;;;;;2.80;0.52;;;17.40;99.90;;;;;;5023742;28;20077;-79
2022/05/21 12:18:37;;;;;;;4.40;0.82;;;17.50;99.90;;;;;;5023460;28;20533;-72
2022/05/21 12:21:06;;;;;;;3.50;0.75;;;17.50;99.90;;;;;;5023901;28;20072;-78
2022/05/21 12:23:32;;;;;;;3.90;0.60;;;17.50;99.90;;;;;;5023740;28;20103;-79
2022/05/21 12:26:00;;;;;;;4.00;0.68;;;17.30;99.90;;;;;;5020491;28;20042;-78
2022/05/21 12:28:31;;;;;;;2.67;0.55;;;17.20;99.90;;;;;;5037674;28;20049;-78
2022/05/21 12:31:08;;;;;;;2.22;0.63;;;17.30;99.90;;;;;;5023973;28;20049;-77
2022/05/21 12:33:56;;;;;;;3.38;0.88;;;17.30;99.90;;;;;;5026409;28;20041;-79
2022/05/21 12:36:40;;;;;;;3.72;0.70;;;17.30;99.90;;;;;;5026051;28;20053;-79
2022/05/21 12:39:11;;;;;;;3.75;0.73;;;17.30;99.90;;;;;;5027334;28;20120;-77
2022/05/21 12:41:42;;;;;;;3.35;0.70;;;17.20;99.90;;;;;;5026394;28;20045;-80
2022/05/21 12:44:08;;;;;;;2.05;0.80;;;17.10;99.90;;;;;;5027248;28;20038;-76
2022/05/21 12:46:35;;;;;;;4.45;0.65;;;17.00;99.90;;;;;;5025055;28;20041;-78
2022/05/21 12:49:07;;;;;;;3.88;0.70;;;16.90;99.90;;;;;;5026189;28;20076;-77
2022/05/21 12:51:41;;;;;;;2.80;0.70;;;16.90;99.90;;;;;;5026681;28;20107;-75
2022/05/21 12:54:17;;;;;;;2.53;0.70;;;16.80;99.90;;;;;;5026385;28;20100;-77
2022/05/21 12:56:43;;;;;;;4.18;0.70;;;16.70;99.90;;;;;;5027048;28;20037;-73
2022/05/21 12:59:21;;;;;;;2.60;0.70;;;16.70;99.90;;;;;;5025978;28;20054;-76
2022/05/21 13:01:58;;;;;;;4.22;0.68;;;16.60;99.90;;;;;;5026644;28;20073;-74
2022/05/21 13:04:38;;;;;;;3.70;0.73;;;16.60;99.90;;;;;;5026972;28;20045;-77
2022/05/21 13:07:21;;;;;;;4.30;0.73;;;16.70;99.90;;;;;;5026929;28;20089;-77
2022/05/21 13:10:02;;;;;;;;;;;16.80;99.90;;;;;;5026671;28;20042;-77
2022/05/21 13:12:39;;;;;;;6.55;0.90;;;17.00;99.90;;;;;;5026606;28;19921;-75
2022/05/21 13:15:11;;;;;;;4.40;0.80;;;17.20;99.90;;;;;;5041753;28;20053;-75
2022/05/21 13:17:47;;;;;;;3.70;0.75;;;17.20;99.90;;;;;;5026409;28;20501;-74
2022/05/21 13:20:33;;;;;;;4.35;0.80;;;17.30;99.90;;;;;;5026390;28;20115;-80
2022/05/21 13:23:07;;;;;;;2.45;0.80;;;17.30;99.90;;;;;;5026411;28;20124;-79
2022/05/21 13:25:33;;;;;;;4.45;0.75;;;17.30;99.90;;;;;;5025746;28;20073;-79
2022/05/21 13:27:59;;;;;;;2.28;0.60;;;17.40;99.90;;;;;;5024057;28;20077;-78
2022/05/21 13:30:36;;;;;;;2.63;0.70;;;17.30;99.90;;;;;;5023595;28;20081;-73
2022/05/21 13:33:04;;;;;;;4.05;0.70;;;17.30;99.90;;;;;;5026170;28;20041;-82
2022/05/21 13:35:39;;;;;;;2.45;0.55;;;17.20;99.90;;;;;;5024857;28;20049;-78
2022/05/21 13:38:09;;;;;;;3.15;0.75;;;17.20;99.90;;;;;;5025733;28;20046;-81
2022/05/21 13:40:53;;;;;;;4.50;0.60;;;17.20;99.90;;;;;;5025148;28;20045;-80
2022/05/21 13:43:23;;;;;;;3.38;0.65;;;17.20;99.90;;;;;;5023231;28;20371;-82